createdAt,value
2018-03-03T00:01:22.244Z,136.43
2018-03-03T00:03:49.682Z,153.40
2018-03-03T00:06:17.911Z,156.10
2018-03-03T00:08:45.355Z,151.85
2018-03-03T00:11:18.564Z,143.95
2018-03-03T00:13:46.011Z,150.82
2018-03-03T00:16:14.228Z,159.07
2018-03-03T00:18:41.666Z,146.23
2018-03-03T00:21:09.899Z,142.00
2018-03-03T00:23:37.343Z,149.62
2018-03-03T00:26:04.783Z,155.57
2018-03-03T00:28:33.011Z,154.40
2018-03-03T00:31:00.456Z,150.48
2018-03-03T00:33:27.907Z,150.55
2018-03-03T00:35:56.106Z,145.93
2018-03-03T00:38:23.564Z,147.23
2018-03-03T00:40:51.798Z,139.73
2018-03-03T00:43:20.048Z,144.25
2018-03-03T00:45:47.491Z,150.73
2018-03-03T00:48:14.943Z,147.25
2018-03-03T00:50:42.392Z,147.68
2018-03-03T00:53:09.842Z,141.40
2018-03-03T00:55:37.288Z,153.55
2018-03-03T00:58:04.805Z,152.55
2018-03-03T01:00:32.247Z,150.05
2018-03-03T01:02:59.708Z,154.10
2018-03-03T01:05:27.152Z,160.12
2018-03-03T01:07:55.372Z,152.12
2018-03-03T01:10:22.818Z,157.05
2018-03-03T01:12:50.271Z,156.30
2018-03-03T01:15:18.472Z,172.75
2018-03-03T01:17:45.922Z,164.82
2018-03-03T01:20:14.126Z,169.32
2018-03-03T01:22:41.575Z,158.30
2018-03-03T01:25:09.794Z,158.98
2018-03-03T01:27:37.238Z,160.90
2018-03-03T01:30:05.450Z,155.25
2018-03-03T01:32:32.907Z,144.93
2018-03-03T01:35:00.347Z,153.48
2018-03-03T01:37:27.808Z,142.30
2018-03-03T01:39:55.246Z,144.27
2018-03-03T01:42:22.699Z,133.45
2018-03-03T01:44:50.667Z,137.95
2018-03-03T01:47:18.170Z,127.70
2018-03-03T01:49:45.607Z,142.10
2018-03-03T01:52:13.061Z,144.73
2018-03-03T01:54:40.499Z,158.25
2018-03-03T01:57:07.952Z,153.50
2018-03-03T01:59:35.394Z,148.20
2018-03-03T02:02:02.846Z,144.45
2018-03-03T02:04:30.320Z,145.43
2018-03-03T02:06:57.776Z,143.50
2018-03-03T02:09:25.220Z,144.65
2018-03-03T02:11:53.448Z,142.07
2018-03-03T02:14:26.742Z,141.23
2018-03-03T02:16:54.246Z,148.45
2018-03-03T02:19:21.712Z,139.00
2018-03-03T02:21:49.938Z,143.13
2018-03-03T02:24:17.386Z,147.05
2018-03-03T03:42:47.967Z,155.67
2018-03-03T03:45:15.419Z,157.00
2018-03-03T03:47:42.871Z,199.52
2018-03-03T03:50:10.334Z,198.02
2018-03-03T03:52:37.795Z,247.45
2018-03-03T03:55:05.248Z,243.80
2018-03-03T03:57:33.495Z,214.05
2018-03-03T04:00:00.944Z,228.43
2018-03-03T04:02:28.408Z,208.30
2018-03-03T04:04:55.887Z,199.40
2018-03-03T04:07:23.368Z,165.00
2018-03-03T04:12:17.888Z,150.03
2018-03-03T04:14:45.340Z,229.93
2018-03-03T04:17:12.784Z,246.90
2018-03-03T04:19:41.022Z,358.27
2018-03-03T04:22:08.459Z,333.90
2018-03-03T04:24:35.907Z,328.80
2018-03-03T04:27:04.135Z,346.25
2018-03-03T04:29:31.598Z,322.25
2018-03-03T04:31:59.032Z,282.05
2018-03-03T04:34:27.265Z,292.70
2018-03-03T04:36:54.732Z,263.80
2018-03-03T04:39:22.192Z,250.55
2018-03-03T04:41:49.656Z,234.68
2018-03-03T04:44:17.114Z,229.43
2018-03-03T04:46:44.560Z,212.25
2018-03-03T04:49:12.785Z,199.05
2018-03-03T04:51:40.236Z,214.35
2018-03-03T04:54:07.692Z,239.95
2018-03-03T04:56:35.152Z,216.63
2018-03-03T04:59:18.269Z,210.68
2018-03-03T05:01:51.525Z,193.43
2018-03-03T05:04:24.479Z,201.47
2018-03-03T05:06:58.342Z,193.53
2018-03-03T05:09:25.792Z,184.23
2018-03-03T05:11:53.243Z,201.65
2018-03-03T05:14:27.084Z,223.07
2018-03-03T05:17:13.240Z,204.43
2018-03-03T05:19:46.407Z,198.48
2018-03-03T05:22:19.503Z,215.75
2018-03-03T05:24:55.547Z,230.57
2018-03-03T05:27:43.451Z,221.55
2018-03-03T05:30:16.587Z,259.90
2018-03-03T05:35:58.159Z,240.93
2018-03-03T05:38:31.252Z,240.60
2018-03-03T05:41:19.632Z,277.20
2018-03-03T05:43:52.810Z,276.30
2018-03-03T05:46:39.059Z,298.37
2018-03-03T05:49:12.261Z,280.90
2018-03-03T05:51:58.471Z,254.85
2018-03-03T05:54:42.644Z,266.40
2018-03-03T05:57:10.091Z,248.73
2018-03-03T05:59:57.240Z,261.23
2018-03-03T06:05:49.827Z,231.82
2018-03-03T06:08:19.868Z,245.50
2018-03-03T06:10:47.315Z,254.07
2018-03-03T06:13:15.067Z,251.90
2018-03-03T06:15:42.511Z,250.77
2018-03-03T06:18:10.732Z,258.50
2018-03-03T06:20:38.220Z,254.52
2018-03-03T06:23:05.683Z,241.82
2018-03-03T06:25:33.125Z,235.80
2018-03-03T06:28:00.567Z,240.50
2018-03-03T06:30:29.425Z,235.85
2018-03-03T06:32:57.579Z,243.40
2018-03-03T06:35:25.049Z,256.80
2018-03-03T06:37:52.501Z,263.58
2018-03-03T06:40:20.716Z,271.52
2018-03-03T06:42:48.173Z,263.80
2018-03-03T06:45:15.627Z,267.55
2018-03-03T06:47:43.836Z,264.48
2018-03-03T06:50:11.282Z,281.13
2018-03-03T06:52:39.491Z,285.87
2018-03-03T06:55:06.967Z,300.75
2018-03-03T06:57:34.408Z,308.77
2018-03-03T07:00:02.636Z,292.45
2018-03-03T07:02:30.093Z,271.35
2018-03-03T07:04:57.536Z,244.62
2018-03-03T07:07:25.003Z,260.75
2018-03-03T07:09:52.471Z,263.25
2018-03-03T07:12:20.743Z,291.02
2018-03-03T07:14:49.855Z,234.27
2018-03-03T07:17:18.080Z,252.62
2018-03-03T07:19:45.528Z,256.50
2018-03-03T07:22:12.983Z,283.85
2018-03-03T07:24:40.428Z,278.02
2018-03-03T07:27:07.900Z,271.83
2018-03-03T07:29:36.127Z,246.60
2018-03-03T07:32:03.576Z,237.02
2018-03-03T07:34:31.042Z,221.00
2018-03-03T07:36:59.275Z,237.43
2018-03-03T07:39:26.707Z,262.27
2018-03-03T07:41:54.169Z,274.42
2018-03-03T07:44:21.611Z,269.85
2018-03-03T07:46:49.081Z,273.13
2018-03-03T07:49:16.524Z,262.50
2018-03-03T07:51:43.972Z,257.80
2018-03-03T07:54:11.415Z,239.77
2018-03-03T07:56:49.970Z,231.05
2018-03-03T07:59:17.420Z,226.55
2018-03-03T08:01:44.871Z,227.82
2018-03-03T08:04:13.080Z,228.20
2018-03-03T08:06:40.528Z,244.18
2018-03-03T08:09:07.971Z,239.73
2018-03-03T08:11:35.432Z,239.93
2018-03-03T08:14:02.879Z,242.57
2018-03-03T08:16:30.348Z,250.55
2018-03-03T08:18:57.796Z,220.55
2018-03-03T08:21:25.253Z,208.20
2018-03-03T08:23:52.698Z,212.70
2018-03-03T08:26:20.916Z,213.07
2018-03-03T08:28:48.413Z,230.47
2018-03-03T08:31:15.872Z,249.55
2018-03-03T08:33:43.321Z,263.17
2018-03-03T08:36:10.789Z,224.62
2018-03-03T08:38:38.240Z,212.27
2018-03-03T08:41:05.694Z,212.88
2018-03-03T08:43:33.908Z,208.15
2018-03-03T08:46:01.352Z,192.20
2018-03-03T08:48:29.568Z,195.90
2018-03-03T08:50:57.021Z,201.50
2018-03-03T08:53:24.476Z,191.85
2018-03-03T08:55:52.692Z,188.65
2018-03-03T08:58:20.152Z,203.73
2018-03-03T09:00:47.593Z,199.45
2018-03-03T09:03:15.808Z,197.40
2018-03-03T09:05:43.304Z,199.38
2018-03-03T09:08:10.753Z,190.50
2018-03-03T09:10:38.207Z,180.85
2018-03-03T09:13:05.655Z,166.48
2018-03-03T09:15:33.876Z,175.77
2018-03-03T09:18:01.349Z,172.45
2018-03-03T09:20:29.528Z,149.20
2018-03-03T09:22:56.987Z,154.90
2018-03-03T09:25:24.451Z,160.93
2018-03-03T09:27:51.907Z,160.85
2018-03-03T09:30:19.358Z,153.62
2018-03-03T09:32:46.809Z,158.75
2018-03-03T09:35:15.754Z,159.37
2018-03-03T09:37:43.195Z,153.07
2018-03-03T09:40:10.664Z,158.18
2018-03-03T09:42:38.107Z,168.35
2018-03-03T09:45:05.568Z,157.93
2018-03-03T09:47:33.020Z,166.62
2018-03-03T09:50:00.492Z,165.23
2018-03-03T09:52:27.979Z,157.02
2018-03-03T09:54:55.427Z,158.93
2018-03-03T09:57:22.880Z,148.02
2018-03-03T09:59:50.320Z,144.75
2018-03-03T10:02:18.528Z,140.43
2018-03-03T10:04:45.971Z,129.68
2018-03-03T10:07:14.196Z,140.10
2018-03-03T10:09:41.648Z,136.00
2018-03-03T10:12:09.104Z,135.65
2018-03-03T10:14:37.343Z,145.30
2018-03-03T10:17:04.780Z,139.12
2018-03-03T10:19:32.281Z,127.97
2018-03-03T10:21:59.755Z,135.65
2018-03-03T10:24:27.155Z,121.17
2018-03-03T11:08:36.316Z,101.27
2018-03-03T11:11:03.763Z,117.00
2018-03-03T11:13:31.204Z,121.05
2018-03-03T11:15:59.440Z,119.47
2018-03-03T11:18:26.887Z,122.95
2018-03-03T11:20:54.380Z,123.75
2018-03-03T11:23:21.858Z,122.22
2018-03-03T11:25:49.319Z,119.47
2018-03-03T11:28:16.760Z,130.98
2018-03-03T11:30:44.260Z,128.25
2018-03-03T11:33:11.706Z,131.37
2018-03-03T11:35:39.191Z,125.50
2018-03-03T11:38:06.644Z,130.77
2018-03-03T11:40:34.142Z,128.77
2018-03-03T11:43:01.612Z,125.32
2018-03-03T11:45:29.080Z,125.65
2018-03-03T11:47:56.536Z,118.72
2018-03-03T11:50:23.976Z,120.20
2018-03-03T11:52:51.484Z,123.05
2018-03-03T11:55:18.956Z,126.53
2018-03-03T11:57:46.408Z,125.90
2018-03-03T12:00:13.888Z,127.85
2018-03-03T12:02:41.348Z,121.77
2018-03-03T12:05:08.797Z,127.78
2018-03-03T12:07:36.239Z,119.78
2018-03-03T12:10:04.443Z,117.55
2018-03-03T12:12:31.895Z,122.43
2018-03-03T12:15:00.223Z,119.43
2018-03-03T12:17:27.704Z,125.05
2018-03-03T12:19:55.179Z,115.97
2018-03-03T12:22:22.632Z,106.87
2018-03-03T12:24:50.086Z,107.47
2018-03-03T12:27:17.567Z,117.25
2018-03-03T12:29:45.041Z,110.40
2018-03-03T12:32:12.628Z,108.47
2018-03-03T12:34:40.071Z,100.20
2018-03-03T12:37:07.548Z,107.60
2018-03-03T12:39:35.028Z,105.97
2018-03-03T12:42:02.468Z,127.43
2018-03-03T12:44:29.975Z,120.30
2018-03-03T12:46:57.420Z,114.72
2018-03-03T12:49:24.871Z,115.28
2018-03-03T12:51:52.355Z,118.25
2018-03-03T12:54:19.840Z,123.60
2018-03-03T12:56:47.299Z,115.28
2018-03-03T12:59:14.748Z,118.18
2018-03-03T13:01:42.244Z,110.22
2018-03-03T13:04:09.683Z,118.20
2018-03-03T13:06:37.124Z,109.47
2018-03-03T13:09:05.359Z,113.80
2018-03-03T13:11:32.936Z,110.40
2018-03-03T13:14:00.379Z,111.33
2018-03-03T13:16:27.875Z,103.00
2018-03-03T13:18:55.342Z,96.32
2018-03-03T13:21:22.808Z,89.50
2018-03-03T13:23:50.272Z,91.22
2018-03-03T13:26:17.713Z,90.90
2018-03-03T13:28:45.310Z,90.18
2018-03-03T13:31:12.784Z,90.62
2018-03-03T13:33:40.256Z,96.50
2018-03-03T13:36:07.724Z,105.53
2018-03-03T13:38:35.162Z,102.50
2018-03-03T13:41:02.698Z,114.78
2018-03-03T13:43:30.128Z,120.90
2018-03-03T13:45:57.597Z,120.47
2018-03-03T13:48:25.059Z,119.47
2018-03-03T13:50:52.535Z,125.00
2018-03-03T13:53:19.988Z,121.43
2018-03-03T13:55:47.440Z,125.05
2018-03-03T13:58:14.872Z,126.40
2018-03-03T14:00:42.414Z,124.15
2018-03-03T14:03:09.853Z,122.95
2018-03-03T14:05:37.305Z,118.20
2018-03-03T14:08:05.631Z,116.90
2018-03-03T14:10:33.108Z,119.25
2018-03-03T14:13:00.592Z,119.47
2018-03-03T14:15:28.045Z,114.10
2018-03-03T14:17:55.490Z,118.77
2018-03-03T14:20:22.984Z,118.47
2018-03-03T14:22:50.463Z,117.35
2018-03-03T14:25:17.908Z,120.00
2018-03-03T14:27:45.352Z,120.62
2018-03-03T14:30:12.806Z,120.43
2018-03-03T14:32:41.049Z,121.32
2018-03-03T14:35:08.622Z,122.28
2018-03-03T14:37:36.082Z,128.27
2018-03-03T14:40:03.534Z,125.28
2018-03-03T14:42:30.983Z,117.45
2018-03-03T14:44:58.489Z,122.45
2018-03-03T14:47:25.962Z,122.30
2018-03-03T14:49:53.518Z,121.33
2018-03-03T14:52:20.992Z,121.07
2018-03-03T14:54:48.459Z,117.20
2018-03-03T14:57:15.917Z,115.68
2018-03-03T14:59:43.355Z,121.15
2018-03-03T15:02:11.568Z,125.67
2018-03-03T15:04:39.012Z,117.28
2018-03-03T15:07:07.251Z,122.72
2018-03-03T15:09:34.704Z,117.10
2018-03-03T15:12:02.150Z,116.00
2018-03-03T15:14:29.655Z,119.15
2018-03-03T15:16:57.223Z,115.05
2018-03-03T15:19:24.669Z,118.15
2018-03-03T15:21:52.123Z,120.07
2018-03-03T15:24:19.560Z,120.47
2018-03-03T15:26:47.821Z,114.32
2018-03-03T15:29:15.280Z,115.53
2018-03-03T15:31:42.767Z,113.82
2018-03-03T15:34:10.185Z,115.20
2018-03-03T15:36:37.634Z,105.00
2018-03-03T15:39:05.847Z,111.87
2018-03-03T15:41:33.307Z,110.82
2018-03-03T15:44:00.804Z,113.30
2018-03-03T15:46:28.274Z,111.28
2018-03-03T15:48:55.720Z,116.30
2018-03-03T15:51:23.163Z,114.35
2018-03-03T15:53:51.392Z,115.78
2018-03-03T15:56:18.843Z,111.10
2018-03-03T15:58:46.332Z,121.55
2018-03-03T16:01:13.781Z,116.30
2018-03-03T16:03:41.228Z,111.15
2018-03-03T16:06:09.439Z,116.05
2018-03-03T16:08:36.883Z,116.50
2018-03-03T16:11:05.102Z,116.28
2018-03-03T16:13:32.552Z,121.75
2018-03-03T16:15:59.995Z,118.37
2018-03-03T16:18:28.231Z,123.03
2018-03-03T16:20:55.712Z,118.32
2018-03-03T16:23:23.168Z,124.72
2018-03-03T16:25:50.598Z,108.53
2018-03-03T16:28:18.105Z,109.47
2018-03-03T16:30:45.571Z,115.85
2018-03-03T16:33:13.051Z,111.10
2018-03-03T16:35:40.502Z,120.20
2018-03-03T16:38:07.943Z,116.63
2018-03-03T16:40:35.395Z,109.68
2018-03-03T16:43:04.058Z,111.00
2018-03-03T16:45:31.499Z,119.30
2018-03-03T16:47:58.949Z,111.00
2018-03-03T16:50:26.389Z,104.43
2018-03-03T16:52:53.926Z,118.78
2018-03-03T16:55:21.370Z,117.70
2018-03-03T16:57:48.832Z,114.68
2018-03-03T17:00:16.281Z,119.62
2018-03-03T17:02:44.495Z,122.10
2018-03-03T17:05:11.933Z,125.28
2018-03-03T17:07:40.162Z,119.10
2018-03-03T17:10:07.627Z,125.10
2018-03-03T17:12:35.080Z,112.27
2018-03-03T17:15:02.535Z,115.57
2018-03-03T17:17:29.980Z,115.55
2018-03-03T17:19:58.191Z,115.20
2018-03-03T17:22:25.643Z,106.95
2018-03-03T17:24:53.875Z,120.10
2018-03-03T17:27:21.333Z,124.72
2018-03-03T17:29:48.788Z,122.13
2018-03-03T17:32:16.248Z,124.97
2018-03-03T17:34:43.673Z,130.43
2018-03-03T17:37:11.135Z,125.38
2018-03-03T17:39:38.575Z,124.75
2018-03-03T17:42:06.060Z,138.75
2018-03-03T17:44:33.497Z,129.45
2018-03-03T17:47:01.002Z,115.22
2018-03-03T17:49:28.454Z,124.07
2018-03-03T17:51:55.902Z,122.87
2018-03-03T17:54:23.335Z,118.67
2018-03-03T17:56:50.792Z,113.93
2018-03-03T17:59:18.232Z,113.57
2018-03-03T18:01:45.692Z,108.20
2018-03-03T18:04:13.275Z,129.45
2018-03-03T18:06:40.712Z,122.37
2018-03-03T18:09:08.168Z,124.53
2018-03-03T18:11:36.372Z,122.68
2018-03-03T18:14:03.868Z,121.18
2018-03-03T18:16:31.348Z,117.72
2018-03-03T18:19:00.353Z,133.57
2018-03-03T18:21:27.791Z,127.12
2018-03-03T18:23:56.013Z,119.70
2018-03-03T18:26:23.449Z,123.70
2018-03-03T18:28:50.918Z,128.15
2018-03-03T18:31:18.360Z,133.23
2018-03-03T18:33:45.812Z,128.05
2018-03-03T18:36:14.032Z,122.93
2018-03-03T18:38:41.491Z,123.53
2018-03-03T18:41:09.700Z,133.93
2018-03-03T18:43:37.157Z,126.90
2018-03-03T18:46:04.596Z,127.62
2018-03-03T18:48:32.049Z,119.37
2018-03-03T18:50:59.495Z,127.70
2018-03-03T18:53:26.942Z,119.68
2018-03-03T18:55:54.393Z,122.50
2018-03-03T18:58:21.849Z,130.10
2018-03-03T19:00:50.057Z,126.62
2018-03-03T19:03:17.512Z,122.82
2018-03-03T19:05:44.969Z,118.05
2018-03-03T19:08:12.413Z,124.35
2018-03-03T19:10:39.861Z,126.75
2018-03-03T19:13:07.304Z,149.43
2018-03-03T19:15:34.760Z,137.57
2018-03-03T19:18:02.213Z,143.82
2018-03-03T19:20:30.462Z,168.48
2018-03-03T19:22:57.876Z,162.40
2018-03-03T19:25:25.329Z,149.87
2018-03-03T19:27:52.768Z,158.60
2018-03-03T19:30:20.220Z,153.25
2018-03-03T19:32:48.425Z,141.37
2018-03-03T19:35:15.867Z,139.67
2018-03-03T19:37:43.328Z,135.02
2018-03-03T19:40:10.806Z,134.48
2018-03-03T19:42:38.235Z,136.80
2018-03-03T19:45:05.688Z,136.50
2018-03-03T19:47:33.141Z,136.70
2018-03-03T19:50:00.580Z,130.93
2018-03-03T19:52:28.031Z,136.90
2018-03-03T19:54:55.471Z,147.13
2018-03-03T19:57:23.683Z,138.88
2018-03-03T19:59:51.128Z,141.07
2018-03-03T20:02:18.586Z,142.50
2018-03-03T20:04:46.020Z,147.73
2018-03-03T20:07:13.484Z,142.55
2018-03-03T20:09:41.688Z,142.30
2018-03-03T20:12:09.196Z,138.17
2018-03-03T20:14:36.648Z,141.82
2018-03-03T20:17:04.099Z,152.20
2018-03-03T20:19:31.556Z,122.32
2018-03-03T20:21:59.009Z,136.37
2018-03-03T20:24:26.447Z,126.70
2018-03-03T20:26:53.900Z,128.32
2018-03-03T20:29:21.400Z,129.38
2018-03-03T20:31:48.807Z,134.02
2018-03-03T20:34:17.012Z,124.87
2018-03-03T20:36:44.470Z,131.02
2018-03-03T20:39:11.913Z,127.55
2018-03-03T20:41:39.360Z,131.45
2018-03-03T20:44:06.804Z,123.13
2018-03-03T20:46:35.010Z,123.60
2018-03-03T20:49:03.224Z,115.40
2018-03-03T20:51:31.431Z,117.47
2018-03-03T20:53:58.884Z,126.60
2018-03-03T20:56:26.329Z,127.28
2018-03-03T20:58:53.770Z,125.28
2018-03-03T21:01:21.976Z,108.90
2018-03-03T21:03:49.436Z,116.20
2018-03-03T21:06:17.694Z,112.97
2018-03-03T21:08:45.106Z,112.32
2018-03-03T21:11:22.453Z,103.38
2018-03-03T21:13:49.960Z,108.80
2018-03-03T21:16:17.390Z,104.32
2018-03-03T21:18:45.599Z,110.80
2018-03-03T21:21:13.805Z,102.38
2018-03-03T21:23:41.252Z,97.95
2018-03-03T21:26:08.696Z,112.47
2018-03-03T21:28:36.141Z,112.63
2018-03-03T21:31:03.584Z,110.75
2018-03-03T21:33:32.554Z,119.80
2018-03-03T21:35:59.992Z,122.85
2018-03-03T21:38:27.440Z,115.23
2018-03-03T21:40:54.888Z,117.22
2018-03-03T21:43:22.344Z,118.53
2018-03-03T21:45:50.557Z,132.10
2018-03-03T21:48:18.783Z,137.32
2018-03-03T21:50:46.234Z,149.98
2018-03-03T21:53:14.452Z,146.68
2018-03-03T21:55:41.900Z,138.25
2018-03-03T21:58:10.112Z,140.20
2018-03-03T22:00:38.328Z,160.02
2018-03-03T22:03:05.776Z,151.77
2018-03-03T22:05:33.988Z,157.57
2018-03-03T22:08:02.196Z,164.50
2018-03-03T22:10:29.648Z,191.67
2018-03-03T22:12:57.852Z,181.12
2018-03-03T22:15:26.071Z,175.32
2018-03-03T22:17:53.513Z,202.40
2018-03-03T22:20:20.959Z,177.60
2018-03-03T22:22:48.412Z,203.07
2018-03-03T22:25:15.860Z,184.18
2018-03-03T22:27:43.296Z,208.27
2018-03-03T22:30:10.817Z,220.23
2018-03-03T22:32:38.256Z,229.27
2018-03-03T22:35:05.716Z,236.43
2018-03-03T22:37:33.160Z,234.70
2018-03-03T22:40:00.604Z,201.90
2018-03-03T22:42:28.060Z,223.80
2018-03-03T22:44:55.507Z,219.48
2018-03-03T22:47:22.935Z,221.60
2018-03-03T22:49:50.387Z,215.43
2018-03-03T22:52:17.832Z,244.65
2018-03-03T22:54:45.329Z,237.25
2018-03-03T22:57:12.773Z,214.23
2018-03-03T22:59:40.241Z,247.37
2018-03-03T23:02:07.687Z,249.12
2018-03-03T23:04:35.893Z,229.73
2018-03-03T23:07:04.103Z,251.10
2018-03-03T23:09:31.556Z,285.70
2018-03-03T23:11:59.004Z,280.95
2018-03-03T23:14:26.445Z,267.27
2018-03-03T23:16:53.884Z,234.73
2018-03-03T23:19:22.099Z,290.12
2018-03-03T23:21:49.543Z,254.87
2018-03-03T23:24:16.984Z,232.02
2018-03-03T23:26:44.440Z,253.90
2018-03-03T23:29:12.653Z,246.55
2018-03-03T23:31:40.871Z,263.15
2018-03-03T23:34:08.314Z,264.08
2018-03-03T23:36:36.535Z,265.97
2018-03-03T23:39:03.984Z,276.12
2018-03-03T23:41:31.426Z,305.90
2018-03-03T23:43:58.877Z,288.10
2018-03-03T23:46:27.095Z,295.60
2018-03-03T23:48:54.544Z,288.35
2018-03-03T23:51:22.756Z,310.20
2018-03-03T23:53:50.980Z,256.15
2018-03-03T23:56:18.416Z,272.13
2018-03-03T23:58:46.695Z,284.20
